Time;durP1;ratioP1;P1;durP2;ratioP2;P2;SDS_P1;SDS_P2;PMS_P1;PMS_P2;Temp;Humidity;BMP_temperature;BMP_pressure;BME280_temperature;BME280_humidity;BME280_pressure;Samples;Min_cycle;Max_cycle;Signal;HPM_P1;HPM_P2
2022/06/06 00:01:07;;;;;;;;;;;;;;;28.51;38.17;100492.22;5058539;28;1041;-50
2022/06/06 00:03:32;;;;;;;;;;;;;;;28.49;38.63;100500.56;5052146;28;1120;-46
2022/06/06 00:05:58;;;;;;;;;;;;;;;28.53;38.75;100509.13;5048784;28;1069;-49
2022/06/06 00:08:24;;;;;;;;;;;;;;;28.50;38.71;100493.25;5055847;28;1037;-49
2022/06/06 00:10:49;;;;;;;;;;;;;;;28.54;38.25;100491.84;5053282;28;1894;-47
2022/06/06 00:13:14;;;;;;;;;;;;;;;28.51;38.48;100481.41;5035820;28;1370;-48
2022/06/06 00:15:40;;;;;;;;;;;;;;;28.51;38.45;100476.81;5054828;28;1274;-48
2022/06/06 00:18:05;;;;;;;;;;;;;;;28.54;38.24;100467.47;5054994;28;1029;-47
2022/06/06 00:20:31;;;;;;;;;;;;;;;28.51;38.37;100466.00;5054395;28;1254;-47
2022/06/06 00:22:56;;;;;;;;;;;;;;;28.57;38.66;100453.53;5044083;28;1085;-47
2022/06/06 00:25:22;;;;;;;;;;;;;;;28.56;38.53;100447.28;5050349;28;962;-50
2022/06/06 00:27:47;;;;;;;;;;;;;;;28.56;38.41;100449.19;5045429;28;1164;-49
2022/06/06 00:30:12;;;;;;;;;;;;;;;28.54;38.77;100448.53;5051107;28;1902;-49
2022/06/06 00:35:21;;;;;;;;;;;;;;;28.48;38.57;100453.72;5048506;28;1060;-51
2022/06/06 00:37:47;;;;;;;;;;;;;;;28.55;38.74;100445.63;5051611;28;1239;-49
2022/06/06 00:40:13;;;;;;;;;;;;;;;28.55;38.54;100440.22;5054611;28;1159;-50
2022/06/06 00:42:39;;;;;;;;;;;;;;;28.56;39.04;100428.34;5055200;28;1160;-47
2022/06/06 00:45:16;;;;;;;;;;;;;;;28.56;38.53;100416.72;5049364;28;969;-50
2022/06/06 00:47:42;;;;;;;;;;;;;;;28.60;38.94;100413.41;5049257;28;1050;-49
2022/06/06 00:50:14;;;;;;;;;;;;;;;28.60;38.61;100399.03;5059301;28;1968;-47
2022/06/06 00:52:40;;;;;;;;;;;;;;;28.58;38.85;100385.69;5036272;28;1025;-48
2022/06/06 00:55:09;;;;;;;;;;;;;;;28.63;38.80;100389.69;5037629;28;1018;-48
2022/06/06 00:57:35;;;;;;;;;;;;;;;28.60;38.74;100375.50;5056393;28;1100;-47
2022/06/06 01:00:01;;;;;;;;;;;;;;;28.60;38.51;100380.06;5056794;28;1176;-47
2022/06/06 01:02:26;;;;;;;;;;;;;;;28.62;38.04;100379.88;5057630;28;1038;-47
2022/06/06 01:04:53;;;;;;;;;;;;;;;28.64;38.44;100378.66;5055152;28;997;-48
2022/06/06 01:07:18;;;;;;;;;;;;;;;28.65;38.67;100393.00;5041266;28;1121;-49
2022/06/06 01:09:43;;;;;;;;;;;;;;;28.65;38.50;100396.53;5057144;28;1965;-47
2022/06/06 01:12:09;;;;;;;;;;;;;;;28.62;38.38;100413.19;5037822;28;1271;-49
2022/06/06 01:14:36;;;;;;;;;;;;;;;28.63;38.55;100409.44;5058324;28;1009;-49
2022/06/06 01:17:01;;;;;;;;;;;;;;;28.65;38.48;100406.53;5040249;28;982;-48
2022/06/06 01:19:45;;;;;;;;;;;;;;;28.65;37.85;100410.09;5049543;28;910;-49
2022/06/06 01:22:10;;;;;;;;;;;;;;;28.65;38.50;100403.81;5053021;28;1045;-48
2022/06/06 01:24:41;;;;;;;;;;;;;;;28.68;38.87;100401.56;5050630;28;966;-49
2022/06/06 01:27:25;;;;;;;;;;;;;;;28.62;38.31;100399.66;5029993;28;1065;-50
2022/06/06 01:29:51;;;;;;;;;;;;;;;28.66;38.75;100403.63;5054095;28;1961;-48
2022/06/06 01:32:18;;;;;;;;;;;;;;;28.64;38.82;100407.56;5036791;28;934;-47
2022/06/06 01:34:43;;;;;;;;;;;;;;;28.64;38.35;100413.84;5055452;28;1054;-47
2022/06/06 01:37:41;;;;;;;;;;;;;;;28.64;38.95;100413.84;5057317;28;1065;-48
2022/06/06 01:40:11;;;;;;;;;;;;;;;28.66;38.58;100419.84;5014670;28;1507;-47
2022/06/06 01:42:44;;;;;;;;;;;;;;;28.66;38.52;100419.84;5033447;28;1069;-49
2022/06/06 01:45:11;;;;;;;;;;;;;;;28.68;38.60;100430.47;5049866;28;873;-52
2022/06/06 01:47:39;;;;;;;;;;;;;;;28.65;39.08;100447.13;5034766;28;1116;-49
2022/06/06 01:50:04;;;;;;;;;;;;;;;28.68;39.00;100446.72;5053779;28;1910;-50
2022/06/06 01:52:30;;;;;;;;;;;;;;;28.67;38.75;100424.25;5037244;28;1030;-49
2022/06/06 01:54:55;;;;;;;;;;;;;;;28.66;38.82;100432.56;5055600;28;1214;-52
2022/06/06 01:57:21;;;;;;;;;;;;;;;28.65;39.13;100433.59;5057574;28;898;-49
2022/06/06 01:59:46;;;;;;;;;;;;;;;28.68;38.85;100422.34;5038115;28;1231;-51
2022/06/06 02:02:11;;;;;;;;;;;;;;;28.71;38.80;100411.97;5057611;28;975;-54
2022/06/06 02:04:37;;;;;;;;;;;;;;;28.70;39.05;100417.59;5055732;28;1061;-49
2022/06/06 02:07:02;;;;;;;;;;;;;;;28.73;39.00;100420.72;5054374;28;1211;-51
2022/06/06 02:09:31;;;;;;;;;;;;;;;28.72;38.92;100426.34;5056896;28;1956;-50
2022/06/06 02:11:57;;;;;;;;;;;;;;;28.69;39.08;100435.72;5057566;28;1187;-50
2022/06/06 02:14:23;;;;;;;;;;;;;;;28.69;38.86;100430.31;5051191;28;1005;-49
2022/06/06 02:16:48;;;;;;;;;;;;;;;28.70;38.65;100445.50;5057502;28;1011;-49
2022/06/06 02:19:13;;;;;;;;;;;;;;;28.75;38.78;100442.19;5047717;28;1119;-49
2022/06/06 02:21:39;;;;;;;;;;;;;;;28.73;39.22;100444.25;5053144;28;1096;-48
2022/06/06 02:24:04;;;;;;;;;;;;;;;28.71;38.91;100457.97;5055353;28;1017;-48
2022/06/06 02:26:29;;;;;;;;;;;;;;;28.74;39.02;100454.06;5054146;28;1116;-49
2022/06/06 02:28:54;;;;;;;;;;;;;;;28.65;38.66;100450.69;5057713;28;1073;-47
2022/06/06 02:31:20;;;;;;;;;;;;;;;28.79;38.50;100445.31;5056336;28;1898;-47
2022/06/06 02:33:45;;;;;;;;;;;;;;;28.76;38.76;100448.44;5057069;28;998;-50
2022/06/06 02:36:11;;;;;;;;;;;;;;;28.68;38.83;100444.00;5056800;28;905;-48
2022/06/06 02:38:36;;;;;;;;;;;;;;;28.60;38.31;100443.16;5057633;28;892;-47
2022/06/06 02:41:08;;;;;;;;;;;;;;;28.56;37.77;100450.00;5033746;28;1017;-47
2022/06/06 02:43:34;;;;;;;;;;;;;;;28.70;38.13;100450.91;5057655;28;1037;-50
2022/06/06 02:46:01;;;;;;;;;;;;;;;28.68;38.24;100452.13;5057480;28;1064;-54
2022/06/06 02:48:27;;;;;;;;;;;;;;;28.75;38.44;100428.66;5056606;28;1040;-54
2022/06/06 02:50:52;;;;;;;;;;;;;;;28.79;38.31;100431.78;5056853;28;1906;-50
2022/06/06 02:53:17;;;;;;;;;;;;;;;28.73;38.29;100412.63;5054911;28;1228;-49
2022/06/06 02:55:43;;;;;;;;;;;;;;;28.70;38.43;100418.44;5056179;28;1123;-49
2022/06/06 02:58:08;;;;;;;;;;;;;;;28.69;38.58;100405.09;5056174;28;1211;-50
2022/06/06 03:00:33;;;;;;;;;;;;;;;28.77;38.87;100414.91;5051551;28;895;-52
2022/06/06 03:02:59;;;;;;;;;;;;;;;28.77;38.86;100404.09;5051299;28;1503;-53
2022/06/06 03:05:27;;;;;;;;;;;;;;;28.69;38.87;100410.50;5056744;28;1167;-48
2022/06/06 03:07:52;;;;;;;;;;;;;;;28.69;38.74;100407.81;5038461;28;1174;-51
2022/06/06 03:10:32;;;;;;;;;;;;;;;28.71;38.86;100403.84;5051655;28;1941;-51
2022/06/06 03:13:01;;;;;;;;;;;;;;;28.70;38.87;100404.06;5053322;28;889;-50
2022/06/06 03:15:32;;;;;;;;;;;;;;;28.79;38.74;100410.97;5053133;28;1146;-51
2022/06/06 03:21:04;;;;;;;;;;;;;;;28.70;38.92;100415.72;5052646;28;1139;-51
2022/06/06 03:23:48;;;;;;;;;;;;;;;27.76;41.83;100424.06;5056665;28;1080;-44
2022/06/06 03:26:32;;;;;;;;;;;;;;;27.52;42.81;100461.25;5051930;28;1147;-43
2022/06/06 03:28:58;;;;;;;;;;;;;;;27.10;40.60;100447.50;5043648;28;1055;-43
2022/06/06 03:31:29;;;;;;;;;;;;;;;27.38;40.53;100454.88;5055764;28;1955;-44
2022/06/06 03:34:13;;;;;;;;;;;;;;;27.41;40.80;100434.75;5051607;28;997;-43
2022/06/06 03:36:57;;;;;;;;;;;;;;;27.80;40.58;100429.91;5049152;28;1035;-44
2022/06/06 03:39:44;;;;;;;;;;;;;;;27.79;41.06;100439.91;5052107;28;926;-45
2022/06/06 03:42:27;;;;;;;;;;;;;;;27.58;40.75;100452.38;5048585;28;1096;-44
2022/06/06 03:44:52;;;;;;;;;;;;;;;27.54;40.33;100453.78;5036862;28;1250;-44
2022/06/06 03:47:35;;;;;;;;;;;;;;;27.35;39.81;100468.75;5055669;28;1078;-43
2022/06/06 03:50:00;;;;;;;;;;;;;;;27.49;39.77;100475.16;5037049;28;1984;-45
2022/06/06 03:52:45;;;;;;;;;;;;;;;27.51;39.96;100489.28;5055860;28;902;-43
2022/06/06 03:55:14;;;;;;;;;;;;;;;27.74;39.72;100521.53;5036125;28;1287;-49
2022/06/06 03:57:39;;;;;;;;;;;;;;;27.49;39.70;100557.00;5031473;28;1037;-44
2022/06/06 04:00:12;;;;;;;;;;;;;;;26.98;41.22;100584.78;5052450;28;1056;-42
2022/06/06 04:02:37;;;;;;;;;;;;;;;26.91;41.16;100592.78;5050333;28;877;-42
2022/06/06 04:05:06;;;;;;;;;;;;;;;26.92;41.02;100582.84;5053669;28;881;-41
2022/06/06 04:07:31;;;;;;;;;;;;;;;27.15;40.24;100561.19;5049951;28;1056;-41
2022/06/06 04:09:56;;;;;;;;;;;;;;;27.26;39.72;100552.59;5055753;28;1901;-41
2022/06/06 04:12:35;;;;;;;;;;;;;;;27.30;39.40;100553.06;5056043;28;1065;-41
2022/06/06 04:15:26;;;;;;;;;;;;;;;27.33;39.58;100568.03;5038229;28;1064;-41
2022/06/06 04:18:06;;;;;;;;;;;;;;;27.33;40.48;100560.78;5017566;28;1340;-42
2022/06/06 04:20:41;;;;;;;;;;;;;;;27.31;39.82;100562.81;5054753;28;994;-43
2022/06/06 04:23:06;;;;;;;;;;;;;;;27.35;39.63;100582.19;5037541;28;982;-42
2022/06/06 04:25:35;;;;;;;;;;;;;;;27.35;40.40;100577.63;5055794;28;1156;-42
2022/06/06 04:28:03;;;;;;;;;;;;;;;27.37;40.39;100575.59;5055634;28;914;-42
2022/06/06 04:30:31;;;;;;;;;;;;;;;27.42;40.27;100560.66;5054961;28;1910;-42
2022/06/06 04:33:16;;;;;;;;;;;;;;;27.44;40.09;100553.22;5055423;28;1088;-42
2022/06/06 04:35:48;;;;;;;;;;;;;;;27.36;39.69;100546.88;5051004;28;985;-42
2022/06/06 04:38:16;;;;;;;;;;;;;;;27.42;39.19;100549.88;5037257;28;978;-42
2022/06/06 04:40:59;;;;;;;;;;;;;;;27.43;39.61;100530.75;5055320;28;990;-42
2022/06/06 04:43:30;;;;;;;;;;;;;;;27.38;39.56;100523.25;5045743;28;875;-42
2022/06/06 04:46:10;;;;;;;;;;;;;;;27.39;39.46;100524.09;5036689;28;1038;-43
2022/06/06 04:48:36;;;;;;;;;;;;;;;27.36;39.55;100536.09;5054557;28;1256;-43
2022/06/06 04:51:02;;;;;;;;;;;;;;;27.35;39.47;100545.22;5037156;28;1914;-43
2022/06/06 04:53:27;;;;;;;;;;;;;;;27.39;39.68;100543.81;5055695;28;1207;-42
2022/06/06 04:55:52;;;;;;;;;;;;;;;27.42;39.50;100541.75;5037361;28;987;-43
2022/06/06 04:58:18;;;;;;;;;;;;;;;27.32;39.71;100537.50;5055170;28;954;-42
2022/06/06 05:00:43;;;;;;;;;;;;;;;27.26;39.87;100532.84;5054652;28;969;-41
2022/06/06 05:03:08;;;;;;;;;;;;;;;27.32;39.95;100532.09;5037003;28;1121;-41
2022/06/06 05:05:40;;;;;;;;;;;;;;;27.43;39.55;100522.66;5055849;28;985;-41
2022/06/06 05:08:05;;;;;;;;;;;;;;;27.46;39.11;100510.66;5055261;28;840;-41
2022/06/06 05:10:53;;;;;;;;;;;;;;;27.46;39.32;100497.97;5054847;28;1980;-41
2022/06/06 05:13:24;;;;;;;;;;;;;;;27.38;38.74;100492.69;5037657;28;1220;-40
2022/06/06 05:15:53;;;;;;;;;;;;;;;27.46;38.86;100505.25;5036759;28;1110;-41
2022/06/06 05:18:25;;;;;;;;;;;;;;;27.43;39.00;100519.97;5036857;28;1168;-40
2022/06/06 05:20:53;;;;;;;;;;;;;;;27.56;40.08;100521.97;5053838;28;993;-41
2022/06/06 05:23:37;;;;;;;;;;;;;;;27.36;40.30;100527.16;5054759;28;1255;-41
2022/06/06 05:26:05;;;;;;;;;;;;;;;27.30;40.11;100528.75;5053442;28;1046;-41
2022/06/06 05:28:43;;;;;;;;;;;;;;;27.36;39.41;100540.69;5053210;28;1081;-41
2022/06/06 05:31:23;;;;;;;;;;;;;;;27.40;39.50;100550.06;5053658;28;1902;-43
2022/06/06 05:33:52;;;;;;;;;;;;;;;27.26;39.49;100539.09;5058403;28;1395;-41
2022/06/06 05:36:20;;;;;;;;;;;;;;;27.17;39.05;100551.03;5040520;28;1176;-43
2022/06/06 05:39:00;;;;;;;;;;;;;;;27.14;39.23;100560.34;5040141;28;1474;-43
2022/06/06 05:41:31;;;;;;;;;;;;;;;27.41;39.09;100554.41;5039496;28;1208;-42
2022/06/06 05:44:03;;;;;;;;;;;;;;;27.50;38.98;100561.41;5058639;28;1068;-42
2022/06/06 05:46:31;;;;;;;;;;;;;;;27.28;38.55;100559.69;5057482;28;1027;-42
2022/06/06 05:49:03;;;;;;;;;;;;;;;27.22;39.32;100564.81;5058304;28;1013;-41
2022/06/06 05:51:34;;;;;;;;;;;;;;;27.10;39.71;100582.50;5039104;28;1914;-41
2022/06/06 05:54:06;;;;;;;;;;;;;;;26.61;39.52;100579.31;5058695;28;1188;-41
2022/06/06 05:57:06;;;;;;;;;;;;;;;27.06;38.86;100608.22;5056044;28;1259;-42
2022/06/06 05:59:47;;;;;;;;;;;;;;;27.33;38.29;100635.56;4968350;28;1518;-42
2022/06/06 06:02:44;;;;;;;;;;;;;;;27.47;38.29;100645.53;5045889;28;1059;-40
2022/06/06 06:05:10;;;;;;;;;;;;;;;27.53;39.08;100648.50;5020614;28;1145;-42
2022/06/06 06:07:42;;;;;;;;;;;;;;;27.50;38.89;100642.44;5058157;28;840;-41
2022/06/06 06:10:20;;;;;;;;;;;;;;;27.47;39.03;100652.78;5038624;28;1947;-43
2022/06/06 06:13:03;;;;;;;;;;;;;;;27.52;38.73;100650.38;5049209;28;1057;-42
2022/06/06 06:15:31;;;;;;;;;;;;;;;27.47;39.09;100634.72;5056109;28;1195;-42
2022/06/06 06:17:57;;;;;;;;;;;;;;;27.55;39.62;100619.41;5058013;28;1052;-44
2022/06/06 06:20:30;;;;;;;;;;;;;;;27.62;39.44;100612.25;5057956;28;1227;-42
2022/06/06 06:22:56;;;;;;;;;;;;;;;27.63;39.88;100622.00;5057242;28;966;-43
2022/06/06 06:25:23;;;;;;;;;;;;;;;27.63;39.77;100633.66;5038812;28;950;-40
2022/06/06 06:27:48;;;;;;;;;;;;;;;27.61;40.34;100646.53;5057830;28;1168;-42
2022/06/06 06:30:14;;;;;;;;;;;;;;;27.86;39.70;100638.09;5039481;28;1939;-40
2022/06/06 06:32:48;;;;;;;;;;;;;;;27.63;40.34;100635.53;5050421;28;1113;-41
2022/06/06 06:35:16;;;;;;;;;;;;;;;27.29;41.04;100621.63;5049922;28;949;-40
2022/06/06 06:37:48;;;;;;;;;;;;;;;27.09;41.03;100613.22;5032152;28;875;-39
2022/06/06 06:40:14;;;;;;;;;;;;;;;27.07;39.10;100608.03;5034805;28;978;-41
2022/06/06 06:42:58;;;;;;;;;;;;;;;27.20;37.25;100612.75;5056525;28;1001;-39
2022/06/06 06:45:25;;;;;;;;;;;;;;;27.30;36.18;100598.97;5049249;28;1013;-39
2022/06/06 06:47:52;;;;;;;;;;;;;;;27.34;36.23;100599.44;5054018;28;1682;-42
2022/06/06 06:50:20;;;;;;;;;;;;;;;27.46;36.05;100607.91;5055209;28;1898;-40
2022/06/06 06:52:51;;;;;;;;;;;;;;;27.59;36.77;100597.22;5055731;28;1006;-41
2022/06/06 06:55:36;;;;;;;;;;;;;;;27.70;37.80;100603.19;5055724;28;1140;-41
2022/06/06 06:58:15;;;;;;;;;;;;;;;27.74;38.88;100601.81;5056804;28;1040;-39
2022/06/06 07:00:46;;;;;;;;;;;;;;;27.57;39.41;100601.16;5051405;28;957;-40
2022/06/06 07:08:50;;;;;;;;;;;;;;;26.50;34.51;100604.84;5051514;28;1084;-39
2022/06/06 07:11:19;;;;;;;;;;;;;;;27.20;37.31;100611.91;5051926;28;1890;-45
2022/06/06 07:13:44;;;;;;;;;;;;;;;27.77;37.86;100603.28;5056370;28;1124;-42
2022/06/06 07:16:29;;;;;;;;;;;;;;;28.03;38.18;100610.00;5055413;28;934;-42
2022/06/06 07:19:17;;;;;;;;;;;;;;;28.18;38.21;100604.50;5056884;28;1289;-48
2022/06/06 07:21:43;;;;;;;;;;;;;;;28.30;38.35;100610.25;5019402;28;1309;-42
2022/06/06 07:24:11;;;;;;;;;;;;;;;28.34;38.07;100615.09;5056344;28;1013;-46
2022/06/06 07:26:38;;;;;;;;;;;;;;;28.38;38.09;100620.13;5056441;28;1072;-42
2022/06/06 07:29:06;;;;;;;;;;;;;;;28.24;38.13;100625.41;5056166;28;1536;-40
2022/06/06 07:31:32;;;;;;;;;;;;;;;28.31;36.34;100634.38;5055863;28;1893;-42
2022/06/06 07:34:11;;;;;;;;;;;;;;;28.29;33.00;100633.78;5056460;28;1009;-39
2022/06/06 07:36:55;;;;;;;;;;;;;;;27.76;31.52;100642.97;5038515;28;982;-40
2022/06/06 07:39:39;;;;;;;;;;;;;;;28.25;33.13;100640.59;5055998;28;1188;-41
2022/06/06 07:42:10;;;;;;;;;;;;;;;28.22;31.38;100638.28;5056387;28;1038;-42
2022/06/06 07:44:48;;;;;;;;;;;;;;;27.82;30.93;100636.81;5053801;28;1509;-44
2022/06/06 07:47:28;;;;;;;;;;;;;;;27.91;31.01;100647.53;5055441;28;1044;-41
2022/06/06 07:49:54;;;;;;;;;;;;;;;28.21;31.90;100650.13;5055972;28;1898;-40
2022/06/06 07:52:22;;;;;;;;;;;;;;;28.30;32.69;100657.06;5056275;28;1202;-42
2022/06/06 07:54:57;;;;;;;;;;;;;;;28.35;33.02;100660.06;5055202;28;946;-40
2022/06/06 07:57:35;;;;;;;;;;;;;;;28.44;32.46;100663.50;5037831;28;946;-39
2022/06/06 08:00:07;;;;;;;;;;;;;;;28.32;30.15;100667.69;5054381;28;989;-41
2022/06/06 08:02:49;;;;;;;;;;;;;;;27.89;30.21;100665.78;5051396;28;1071;-42
2022/06/06 08:05:27;;;;;;;;;;;;;;;28.30;31.45;100673.31;5037489;28;997;-42
2022/06/06 08:08:07;;;;;;;;;;;;;;;28.48;31.84;100666.63;5052464;28;1050;-38
2022/06/06 08:10:32;;;;;;;;;;;;;;;28.40;30.23;100661.34;5037192;28;1894;-42
2022/06/06 08:13:10;;;;;;;;;;;;;;;28.28;29.82;100671.84;5055426;28;1164;-41
2022/06/06 08:15:44;;;;;;;;;;;;;;;28.47;32.86;100673.91;5055016;28;982;-39
2022/06/06 08:18:13;;;;;;;;;;;;;;;28.39;32.18;100679.47;5055222;28;994;-41
2022/06/06 08:20:47;;;;;;;;;;;;;;;28.53;33.00;100679.59;5055570;28;986;-42
2022/06/06 08:23:13;;;;;;;;;;;;;;;28.55;34.41;100672.94;5055218;28;1002;-41
2022/06/06 08:25:40;;;;;;;;;;;;;;;28.70;33.71;100675.56;5055538;28;994;-41
2022/06/06 08:28:05;;;;;;;;;;;;;;;28.69;33.30;100671.19;5037192;28;1080;-42
2022/06/06 08:30:32;;;;;;;;;;;;;;;28.77;34.06;100666.66;5054223;28;1902;-40
2022/06/06 08:32:57;;;;;;;;;;;;;;;28.80;34.98;100677.09;5032348;28;1060;-48
2022/06/06 08:35:23;;;;;;;;;;;;;;;28.94;33.84;100664.50;5055350;28;1069;-42
2022/06/06 08:38:01;;;;;;;;;;;;;;;28.90;33.58;100660.50;5051594;28;1045;-42
2022/06/06 08:40:39;;;;;;;;;;;;;;;28.81;32.41;100670.66;5037635;28;1033;-42
2022/06/06 08:43:17;;;;;;;;;;;;;;;28.93;32.60;100655.53;5037570;28;1105;-40
2022/06/06 08:45:47;;;;;;;;;;;;;;;28.90;34.11;100668.63;5049621;28;1136;-44
2022/06/06 08:48:12;;;;;;;;;;;;;;;28.68;33.68;100668.66;5036664;28;1480;-42
2022/06/06 08:50:46;;;;;;;;;;;;;;;28.32;30.50;100662.28;5055187;28;1906;-43
2022/06/06 08:53:12;;;;;;;;;;;;;;;28.22;29.79;100662.63;5055242;28;1163;-41
2022/06/06 08:55:37;;;;;;;;;;;;;;;28.24;30.47;100661.38;5055689;28;1053;-42
2022/06/06 08:58:20;;;;;;;;;;;;;;;28.16;30.47;100663.38;5055135;28;867;-42
2022/06/06 09:00:54;;;;;;;;;;;;;;;28.16;30.61;100660.69;5054632;28;1002;-42
2022/06/06 09:03:44;;;;;;;;;;;;;;;28.15;31.81;100657.13;5055241;28;1218;-41
2022/06/06 09:06:28;;;;;;;;;;;;;;;28.48;32.98;100644.97;5032609;28;1209;-41
2022/06/06 09:09:19;;;;;;;;;;;;;;;28.43;34.30;100650.97;5056430;28;1487;-42
2022/06/06 09:11:59;;;;;;;;;;;;;;;28.67;35.23;100653.47;5053739;28;1961;-39
2022/06/06 09:14:37;;;;;;;;;;;;;;;28.69;35.51;100654.94;5058733;28;1191;-46
2022/06/06 09:17:16;;;;;;;;;;;;;;;28.71;35.21;100644.75;5058120;28;1227;-42
2022/06/06 09:19:42;;;;;;;;;;;;;;;28.81;35.56;100646.28;5041366;28;1065;-42
2022/06/06 09:22:19;;;;;;;;;;;;;;;28.88;35.36;100651.75;5057666;28;1057;-40
2022/06/06 09:24:51;;;;;;;;;;;;;;;28.96;35.50;100657.84;5058341;28;1132;-41
2022/06/06 09:27:16;;;;;;;;;;;;;;;29.00;35.65;100657.47;5053013;28;966;-41
2022/06/06 09:29:48;;;;;;;;;;;;;;;29.04;35.67;100656.91;5049166;28;1898;-40
2022/06/06 09:32:16;;;;;;;;;;;;;;;29.19;35.83;100664.06;5058156;28;974;-42
2022/06/06 09:34:48;;;;;;;;;;;;;;;29.11;36.38;100650.69;5051955;28;1077;-43
2022/06/06 09:37:13;;;;;;;;;;;;;;;29.21;37.83;100654.69;5049536;28;1072;-40
2022/06/06 09:39:53;;;;;;;;;;;;;;;29.24;40.18;100641.78;5055049;28;1168;-38
2022/06/06 09:42:37;;;;;;;;;;;;;;;29.14;40.86;100640.28;5036548;28;1304;-39
2022/06/06 09:45:03;;;;;;;;;;;;;;;29.28;39.89;100640.34;5057206;28;1147;-38
2022/06/06 09:47:31;;;;;;;;;;;;;;;29.14;40.37;100632.16;5055557;28;1085;-38
2022/06/06 09:49:59;;;;;;;;;;;;;;;29.29;39.30;100625.75;5049937;28;1914;-38
2022/06/06 09:52:25;;;;;;;;;;;;;;;29.21;39.19;100624.06;5050892;28;1032;-38
2022/06/06 10:01:02;;;;;;;;;;;;;;;29.30;39.87;100617.44;5056431;28;870;-37
2022/06/06 10:03:40;;;;;;;;;;;;;;;29.32;39.54;100609.09;5051656;28;1152;-38
2022/06/06 10:06:17;;;;;;;;;;;;;;;29.41;38.54;100610.59;5023209;28;1133;-39
2022/06/06 10:08:53;;;;;;;;;;;;;;;29.33;39.12;100619.75;5049508;28;1021;-38
2022/06/06 10:11:34;;;;;;;;;;;;;;;29.39;38.93;100615.41;5054737;28;1897;-39
2022/06/06 10:14:07;;;;;;;;;;;;;;;29.40;39.18;100619.78;5057346;28;1049;-38
2022/06/06 10:16:56;;;;;;;;;;;;;;;29.32;40.96;100618.06;5033659;28;880;-38
2022/06/06 10:19:21;;;;;;;;;;;;;;;29.21;40.56;100618.66;5033946;28;1144;-38
2022/06/06 10:22:02;;;;;;;;;;;;;;;29.34;40.01;100613.28;5055491;28;993;-38
2022/06/06 10:24:33;;;;;;;;;;;;;;;29.34;39.69;100615.16;5054170;28;1140;-38
2022/06/06 10:27:04;;;;;;;;;;;;;;;29.42;38.95;100620.41;5056259;28;942;-38
2022/06/06 10:32:41;;;;;;;;;;;;;;;29.54;38.10;100611.69;5056185;28;946;-41
2022/06/06 10:35:08;;;;;;;;;;;;;;;29.48;37.13;100613.31;5052398;28;1084;-39
2022/06/06 10:37:52;;;;;;;;;;;;;;;29.53;36.26;100607.31;5056419;28;974;-39
2022/06/06 10:40:22;;;;;;;;;;;;;;;29.64;36.99;100597.78;5057308;28;985;-38
2022/06/06 10:42:54;;;;;;;;;;;;;;;29.51;37.60;100596.66;5036767;28;1141;-38
2022/06/06 10:45:25;;;;;;;;;;;;;;;29.53;36.38;100600.00;5054856;28;1259;-38
2022/06/06 10:48:02;;;;;;;;;;;;;;;29.52;36.27;100597.50;5056940;28;1211;-38
2022/06/06 10:53:48;;;;;;;;;;;;;;;29.43;36.36;100594.97;5054211;28;1006;-39
2022/06/06 10:56:20;;;;;;;;;;;;;;;29.52;35.79;100592.94;5037512;28;1099;-39
2022/06/06 10:58:46;;;;;;;;;;;;;;;29.69;35.50;100596.16;5056662;28;1120;-39
2022/06/06 11:01:29;;;;;;;;;;;;;;;29.76;34.62;100595.31;5056554;28;978;-39
2022/06/06 11:04:03;;;;;;;;;;;;;;;29.73;35.86;100598.44;5056526;28;946;-38
2022/06/06 11:06:44;;;;;;;;;;;;;;;29.72;35.96;100599.47;5039000;28;1005;-38
2022/06/06 11:09:18;;;;;;;;;;;;;;;29.67;36.11;100600.09;5057580;28;1266;-38
2022/06/06 11:11:55;;;;;;;;;;;;;;;29.73;36.89;100607.38;5057046;28;1898;-39
2022/06/06 11:14:32;;;;;;;;;;;;;;;29.23;38.73;100621.16;5021928;28;1037;-38
2022/06/06 11:17:06;;;;;;;;;;;;;;;29.27;38.29;100623.25;5056557;28;1294;-38
2022/06/06 11:19:50;;;;;;;;;;;;;;;29.18;37.44;100621.72;5056479;28;997;-38
2022/06/06 11:22:34;;;;;;;;;;;;;;;29.06;39.43;100625.00;5051191;28;971;-38
2022/06/06 11:25:05;;;;;;;;;;;;;;;29.24;39.06;100622.81;5056441;28;969;-39
2022/06/06 11:27:49;;;;;;;;;;;;;;;29.21;38.54;100624.06;5056273;28;1061;-39
2022/06/06 11:30:29;;;;;;;;;;;;;;;29.20;39.10;100628.63;5055047;28;1894;-39
2022/06/06 11:33:07;;;;;;;;;;;;;;;29.37;38.41;100620.19;5050310;28;1044;-38
2022/06/06 11:35:41;;;;;;;;;;;;;;;29.28;37.93;100624.09;5056445;28;957;-38
2022/06/06 11:38:24;;;;;;;;;;;;;;;29.50;37.48;100618.53;5056053;28;1069;-40
2022/06/06 11:40:53;;;;;;;;;;;;;;;29.60;37.77;100619.03;5056112;28;1132;-38
2022/06/06 11:43:37;;;;;;;;;;;;;;;29.76;37.53;100620.53;5055833;28;942;-37
2022/06/06 11:46:02;;;;;;;;;;;;;;;29.78;37.03;100615.75;5053609;28;1345;-37
2022/06/06 11:48:46;;;;;;;;;;;;;;;28.30;43.90;100604.84;5055865;28;1229;-38
2022/06/06 11:51:29;;;;;;;;;;;;;;;28.71;43.32;100589.78;5055727;28;1914;-39
2022/06/06 11:54:10;;;;;;;;;;;;;;;28.84;42.79;100600.69;5055637;28;981;-39
2022/06/06 11:56:53;;;;;;;;;;;;;;;28.44;43.73;100595.00;5056376;28;1216;-39
2022/06/06 11:59:37;;;;;;;;;;;;;;;28.73;43.00;100595.81;5055091;28;941;-39
2022/06/06 12:02:18;;;;;;;;;;;;;;;28.94;42.51;100594.09;5053356;28;934;-37
2022/06/06 12:04:49;;;;;;;;;;;;;;;29.00;41.91;100597.88;5055084;28;1135;-38
2022/06/06 12:07:20;;;;;;;;;;;;;;;29.13;40.89;100616.91;5035386;28;1227;-38
2022/06/06 12:09:48;;;;;;;;;;;;;;;28.01;45.55;100615.59;5054633;28;1906;-38
2022/06/06 12:12:23;;;;;;;;;;;;;;;26.89;49.49;100602.97;5051284;28;982;-37
2022/06/06 12:14:57;;;;;;;;;;;;;;;27.07;48.72;100609.88;5052222;28;1143;-37
2022/06/06 12:17:28;;;;;;;;;;;;;;;26.88;49.83;100602.13;5052844;28;970;-38
2022/06/06 12:20:16;;;;;;;;;;;;;;;26.73;49.76;100595.84;5035375;28;1132;-37
2022/06/06 12:22:44;;;;;;;;;;;;;;;27.72;47.32;100618.22;5054861;28;1592;-38
2022/06/06 12:25:16;;;;;;;;;;;;;;;28.71;44.35;100625.78;5055538;28;1148;-39
2022/06/06 12:27:47;;;;;;;;;;;;;;;29.12;42.93;100626.09;5054995;28;1494;-40
2022/06/06 12:30:31;;;;;;;;;;;;;;;29.29;41.85;100623.06;5055695;28;1902;-39
2022/06/06 12:33:03;;;;;;;;;;;;;;;29.48;41.81;100612.50;5045898;28;1009;-38
2022/06/06 12:35:31;;;;;;;;;;;;;;;29.60;41.31;100605.47;5051364;28;965;-39
2022/06/06 12:37:57;;;;;;;;;;;;;;;29.69;40.79;100595.31;5055558;28;1013;-39
2022/06/06 12:40:45;;;;;;;;;;;;;;;29.75;40.65;100608.03;5052774;28;1226;-38
2022/06/06 12:43:17;;;;;;;;;;;;;;;29.76;40.75;100603.44;5048180;28;1097;-38
2022/06/06 12:46:01;;;;;;;;;;;;;;;29.59;40.85;100598.41;5058723;28;831;-38
2022/06/06 12:48:44;;;;;;;;;;;;;;;29.56;41.34;100593.38;5054225;28;1244;-38
2022/06/06 12:51:23;;;;;;;;;;;;;;;29.55;41.26;100611.50;5059222;28;1967;-38
2022/06/06 12:54:00;;;;;;;;;;;;;;;29.46;41.33;100597.28;5040653;28;1212;-38
2022/06/06 12:56:35;;;;;;;;;;;;;;;29.46;41.55;100593.75;5059298;28;1080;-38
2022/06/06 12:59:20;;;;;;;;;;;;;;;29.45;41.12;100603.75;5056510;28;1167;-39
2022/06/06 13:01:57;;;;;;;;;;;;;;;29.37;40.98;100605.78;5055634;28;897;-37
2022/06/06 13:04:22;;;;;;;;;;;;;;;29.39;40.76;100609.13;5059664;28;965;-37
2022/06/06 13:06:58;;;;;;;;;;;;;;;29.42;40.38;100587.03;5057211;28;1056;-37
2022/06/06 13:09:47;;;;;;;;;;;;;;;29.39;40.22;100604.56;5040520;28;990;-39
2022/06/06 13:12:30;;;;;;;;;;;;;;;29.33;40.08;100619.75;5020871;28;1237;-39
2022/06/06 13:15:11;;;;;;;;;;;;;;;29.34;40.21;100620.59;5056203;28;1033;-38
2022/06/06 13:17:55;;;;;;;;;;;;;;;29.38;39.95;100619.13;5058606;28;1019;-39
2022/06/06 13:20:32;;;;;;;;;;;;;;;29.24;40.30;100615.53;5058962;28;1060;-40
2022/06/06 13:23:18;;;;;;;;;;;;;;;29.26;40.15;100615.34;5058705;28;1191;-37
2022/06/06 13:26:02;;;;;;;;;;;;;;;29.31;40.24;100616.38;5058369;28;1050;-38
2022/06/06 13:28:31;;;;;;;;;;;;;;;29.30;40.63;100614.72;5052446;28;974;-38
2022/06/06 13:31:04;;;;;;;;;;;;;;;29.31;40.69;100613.69;5051724;28;1905;-37
2022/06/06 13:33:37;;;;;;;;;;;;;;;29.45;40.16;100619.16;5058957;28;1140;-37
2022/06/06 13:36:12;;;;;;;;;;;;;;;29.32;40.45;100625.34;5040012;28;1017;-38
2022/06/06 13:38:43;;;;;;;;;;;;;;;29.27;40.18;100614.28;5057838;28;1132;-37
2022/06/06 13:41:29;;;;;;;;;;;;;;;29.26;40.35;100608.03;5040795;28;1128;-37